sensor_id;sensor_type;location;lat;lon;timestamp;pressure;altitude;pressure_sealevel;temperature;humidity
2178;BME280;1095;50.992;6.798;2023-01-30T00:01:41;101308.53;;;3.17;100.00
2178;BME280;1095;50.992;6.798;2023-01-30T00:04:09;101304.38;;;3.14;100.00
2178;BME280;1095;50.992;6.798;2023-01-30T00:06:36;101284.53;;;3.15;100.00
2178;BME280;1095;50.992;6.798;2023-01-30T00:09:03;101271.78;;;3.12;100.00
2178;BME280;1095;50.992;6.798;2023-01-30T00:11:30;101243.22;;;3.13;100.00
2178;BME280;1095;50.992;6.798;2023-01-30T00:13:58;101238.81;;;3.15;100.00
2178;BME280;1095;50.992;6.798;2023-01-30T00:16:24;101248.97;;;3.18;100.00
2178;BME280;1095;50.992;6.798;2023-01-30T00:18:52;101246.28;;;3.20;100.00
2178;BME280;1095;50.992;6.798;2023-01-30T00:21:19;101254.97;;;3.19;100.00
2178;BME280;1095;50.992;6.798;2023-01-30T00:26:23;101257.19;;;3.25;100.00
2178;BME280;1095;50.992;6.798;2023-01-30T00:28:49;101246.66;;;3.28;100.00
2178;BME280;1095;50.992;6.798;2023-01-30T00:31:16;101259.56;;;3.28;100.00
2178;BME280;1095;50.992;6.798;2023-01-30T00:33:43;101252.75;;;3.27;100.00
2178;BME280;1095;50.992;6.798;2023-01-30T00:36:11;101250.34;;;3.24;100.00
2178;BME280;1095;50.992;6.798;2023-01-30T00:38:37;101239.50;;;3.31;100.00
2178;BME280;1095;50.992;6.798;2023-01-30T00:41:04;101235.38;;;3.29;100.00
2178;BME280;1095;50.992;6.798;2023-01-30T00:43:31;101235.38;;;3.29;100.00
2178;BME280;1095;50.992;6.798;2023-01-30T00:46:20;101225.88;;;3.29;100.00
2178;BME280;1095;50.992;6.798;2023-01-30T00:49:06;101233.50;;;3.31;100.00
2178;BME280;1095;50.992;6.798;2023-01-30T00:51:34;101226.69;;;3.30;100.00
2178;BME280;1095;50.992;6.798;2023-01-30T00:54:01;101221.53;;;3.30;100.00
2178;BME280;1095;50.992;6.798;2023-01-30T00:56:28;101218.94;;;3.30;100.00
2178;BME280;1095;50.992;6.798;2023-01-30T00:58:54;101219.63;;;3.32;100.00
2178;BME280;1095;50.992;6.798;2023-01-30T01:01:21;101207.63;;;3.31;100.00
2178;BME280;1095;50.992;6.798;2023-01-30T01:03:49;101189.34;;;3.34;100.00
2178;BME280;1095;50.992;6.798;2023-01-30T01:06:15;101202.25;;;3.34;100.00
2178;BME280;1095;50.992;6.798;2023-01-30T01:08:43;101195.25;;;3.36;100.00
2178;BME280;1095;50.992;6.798;2023-01-30T01:11:10;101190.06;;;3.36;100.00
2178;BME280;1095;50.992;6.798;2023-01-30T01:13:49;101194.03;;;3.42;100.00
2178;BME280;1095;50.992;6.798;2023-01-30T01:16:15;101193.38;;;3.38;100.00
2178;BME280;1095;50.992;6.798;2023-01-30T01:18:42;101204.47;;;3.40;100.00
2178;BME280;1095;50.992;6.798;2023-01-30T01:21:08;101187.84;;;3.44;100.00
2178;BME280;1095;50.992;6.798;2023-01-30T01:23:35;101189.59;;;3.44;100.00
2178;BME280;1095;50.992;6.798;2023-01-30T01:26:03;101177.50;;;3.44;100.00
2178;BME280;1095;50.992;6.798;2023-01-30T01:28:30;101189.50;;;3.45;100.00
2178;BME280;1095;50.992;6.798;2023-01-30T01:30:57;101181.63;;;3.47;100.00
2178;BME280;1095;50.992;6.798;2023-01-30T01:33:25;101171.38;;;3.45;100.00
2178;BME280;1095;50.992;6.798;2023-01-30T01:35:54;101173.34;;;3.42;100.00
2178;BME280;1095;50.992;6.798;2023-01-30T01:38:21;101184.41;;;3.44;100.00
2178;BME280;1095;50.992;6.798;2023-01-30T01:40:47;101165.28;;;3.46;100.00
2178;BME280;1095;50.992;6.798;2023-01-30T01:43:34;101165.47;;;3.43;100.00
2178;BME280;1095;50.992;6.798;2023-01-30T01:46:05;101163.44;;;3.48;100.00
2178;BME280;1095;50.992;6.798;2023-01-30T01:48:37;101167.50;;;3.52;100.00
2178;BME280;1095;50.992;6.798;2023-01-30T01:51:08;101162.13;;;3.55;100.00
2178;BME280;1095;50.992;6.798;2023-01-30T01:53:51;101163.97;;;3.53;100.00
2178;BME280;1095;50.992;6.798;2023-01-30T01:56:20;101156.00;;;3.56;100.00
2178;BME280;1095;50.992;6.798;2023-01-30T01:58:51;101157.69;;;3.57;100.00
2178;BME280;1095;50.992;6.798;2023-01-30T02:01:20;101145.66;;;3.56;100.00
2178;BME280;1095;50.992;6.798;2023-01-30T02:03:51;101125.50;;;3.61;100.00
2178;BME280;1095;50.992;6.798;2023-01-30T02:06:20;101143.63;;;3.61;100.00
2178;BME280;1095;50.992;6.798;2023-01-30T02:08:51;101141.97;;;3.60;100.00
2178;BME280;1095;50.992;6.798;2023-01-30T02:11:25;101134.91;;;3.62;100.00
2178;BME280;1095;50.992;6.798;2023-01-30T02:13:56;101136.19;;;3.70;100.00
2178;BME280;1095;50.992;6.798;2023-01-30T02:16:23;101136.38;;;3.66;100.00
2178;BME280;1095;50.992;6.798;2023-01-30T02:18:50;101131.94;;;3.69;100.00
2178;BME280;1095;50.992;6.798;2023-01-30T02:24:48;101120.84;;;3.66;100.00
2178;BME280;1095;50.992;6.798;2023-01-30T02:27:45;101112.66;;;3.60;100.00
2178;BME280;1095;50.992;6.798;2023-01-30T02:30:40;101091.44;;;3.55;100.00
2178;BME280;1095;50.992;6.798;2023-01-30T02:33:15;101107.59;;;3.58;100.00
2178;BME280;1095;50.992;6.798;2023-01-30T02:35:51;101113.97;;;3.53;100.00
2178;BME280;1095;50.992;6.798;2023-01-30T02:38:33;101084.75;;;3.38;100.00
2178;BME280;1095;50.992;6.798;2023-01-30T02:41:12;101057.84;;;3.28;100.00
2178;BME280;1095;50.992;6.798;2023-01-30T02:43:51;101074.59;;;3.35;100.00
2178;BME280;1095;50.992;6.798;2023-01-30T02:46:26;101084.25;;;3.46;100.00
2178;BME280;1095;50.992;6.798;2023-01-30T02:49:01;101087.66;;;3.46;100.00
2178;BME280;1095;50.992;6.798;2023-01-30T02:51:34;101077.22;;;3.48;100.00
2178;BME280;1095;50.992;6.798;2023-01-30T02:54:01;101069.38;;;3.49;100.00
2178;BME280;1095;50.992;6.798;2023-01-30T02:56:42;101066.78;;;3.49;100.00
2178;BME280;1095;50.992;6.798;2023-01-30T02:59:09;101056.31;;;3.51;100.00
2178;BME280;1095;50.992;6.798;2023-01-30T03:02:09;101052.72;;;3.53;100.00
2178;BME280;1095;50.992;6.798;2023-01-30T03:04:57;101037.19;;;3.53;100.00
2178;BME280;1095;50.992;6.798;2023-01-30T03:07:37;101042.69;;;3.61;100.00
2178;BME280;1095;50.992;6.798;2023-01-30T03:10:18;101030.59;;;3.62;100.00
2178;BME280;1095;50.992;6.798;2023-01-30T03:12:51;101031.41;;;3.62;100.00
2178;BME280;1095;50.992;6.798;2023-01-30T03:15:25;101040.53;;;3.68;100.00
2178;BME280;1095;50.992;6.798;2023-01-30T03:17:55;101017.97;;;3.70;100.00
2178;BME280;1095;50.992;6.798;2023-01-30T03:20:22;101042.59;;;3.76;100.00
2178;BME280;1095;50.992;6.798;2023-01-30T03:22:49;101044.28;;;3.77;100.00
2178;BME280;1095;50.992;6.798;2023-01-30T03:25:18;101042.59;;;3.76;100.00
2178;BME280;1095;50.992;6.798;2023-01-30T03:27:47;101036.78;;;3.85;100.00
2178;BME280;1095;50.992;6.798;2023-01-30T03:30:16;101020.31;;;3.86;100.00
2178;BME280;1095;50.992;6.798;2023-01-30T03:32:43;101014.94;;;3.89;100.00
2178;BME280;1095;50.992;6.798;2023-01-30T03:35:11;101026.56;;;3.96;100.00
2178;BME280;1095;50.992;6.798;2023-01-30T03:37:37;101020.66;;;3.94;100.00
2178;BME280;1095;50.992;6.798;2023-01-30T03:40:05;101013.59;;;3.96;100.00
2178;BME280;1095;50.992;6.798;2023-01-30T03:42:32;101014.94;;;4.02;100.00
2178;BME280;1095;50.992;6.798;2023-01-30T03:44:59;101027.06;;;4.01;100.00
2178;BME280;1095;50.992;6.798;2023-01-30T03:47:25;101016.50;;;4.04;100.00
2178;BME280;1095;50.992;6.798;2023-01-30T03:49:52;100999.31;;;4.03;100.00
2178;BME280;1095;50.992;6.798;2023-01-30T03:52:20;100992.88;;;4.09;100.00
2178;BME280;1095;50.992;6.798;2023-01-30T03:54:47;101001.06;;;4.15;100.00
2178;BME280;1095;50.992;6.798;2023-01-30T03:57:13;100985.63;;;4.14;100.00
2178;BME280;1095;50.992;6.798;2023-01-30T03:59:40;100988.13;;;4.15;100.00
2178;BME280;1095;50.992;6.798;2023-01-30T04:02:07;100980.56;;;4.12;100.00
2178;BME280;1095;50.992;6.798;2023-01-30T04:04:33;100984.81;;;4.13;100.00
2178;BME280;1095;50.992;6.798;2023-01-30T04:07:00;100972.56;;;4.15;100.00
2178;BME280;1095;50.992;6.798;2023-01-30T04:09:28;100982.09;;;4.15;100.00
2178;BME280;1095;50.992;6.798;2023-01-30T04:11:55;100956.22;;;4.15;100.00
2178;BME280;1095;50.992;6.798;2023-01-30T04:14:21;100959.72;;;4.14;100.00
2178;BME280;1095;50.992;6.798;2023-01-30T04:16:48;100961.06;;;4.19;100.00
2178;BME280;1095;50.992;6.798;2023-01-30T04:19:14;100949.38;;;4.14;100.00
2178;BME280;1095;50.992;6.798;2023-01-30T04:21:41;100953.50;;;4.16;100.00
2178;BME280;1095;50.992;6.798;2023-01-30T04:24:08;100943.88;;;4.18;100.00
2178;BME280;1095;50.992;6.798;2023-01-30T04:26:36;100948.34;;;4.16;100.00
2178;BME280;1095;50.992;6.798;2023-01-30T04:29:02;100959.63;;;4.15;100.00
2178;BME280;1095;50.992;6.798;2023-01-30T04:31:29;100957.75;;;4.17;100.00
2178;BME280;1095;50.992;6.798;2023-01-30T04:33:56;100967.41;;;4.15;100.00
2178;BME280;1095;50.992;6.798;2023-01-30T04:36:23;100969.47;;;4.10;100.00
2178;BME280;1095;50.992;6.798;2023-01-30T04:38:49;100964.28;;;4.10;100.00
2178;BME280;1095;50.992;6.798;2023-01-30T04:41:17;100970.31;;;4.11;100.00
2178;BME280;1095;50.992;6.798;2023-01-30T04:43:45;100956.63;;;4.09;100.00
2178;BME280;1095;50.992;6.798;2023-01-30T04:46:12;100950.63;;;4.08;100.00
2178;BME280;1095;50.992;6.798;2023-01-30T04:48:38;100960.97;;;4.08;100.00
2178;BME280;1095;50.992;6.798;2023-01-30T04:51:05;100969.78;;;4.06;100.00
2178;BME280;1095;50.992;6.798;2023-01-30T04:53:32;100963.88;;;4.04;100.00
2178;BME280;1095;50.992;6.798;2023-01-30T04:55:58;100958.09;;;4.00;100.00
2178;BME280;1095;50.992;6.798;2023-01-30T04:58:25;100961.81;;;3.96;100.00
2178;BME280;1095;50.992;6.798;2023-01-30T05:00:53;100952.41;;;3.95;100.00
2178;BME280;1095;50.992;6.798;2023-01-30T05:03:23;100954.97;;;3.95;100.00
2178;BME280;1095;50.992;6.798;2023-01-30T05:05:50;100956.75;;;3.94;100.00
2178;BME280;1095;50.992;6.798;2023-01-30T05:08:16;100956.97;;;3.91;100.00
2178;BME280;1095;50.992;6.798;2023-01-30T05:10:43;100955.41;;;3.89;100.00
2178;BME280;1095;50.992;6.798;2023-01-30T05:13:09;100960.59;;;3.89;100.00
2178;BME280;1095;50.992;6.798;2023-01-30T05:15:37;100952.28;;;3.84;100.00
2178;BME280;1095;50.992;6.798;2023-01-30T05:18:05;100967.63;;;3.87;100.00
2178;BME280;1095;50.992;6.798;2023-01-30T05:20:32;100965.97;;;3.86;100.00
2178;BME280;1095;50.992;6.798;2023-01-30T05:22:59;100966.91;;;3.85;100.00
2178;BME280;1095;50.992;6.798;2023-01-30T05:25:25;100959.13;;;3.85;100.00
2178;BME280;1095;50.992;6.798;2023-01-30T05:27:52;100965.75;;;3.89;100.00
2178;BME280;1095;50.992;6.798;2023-01-30T05:30:18;100966.47;;;3.91;100.00
2178;BME280;1095;50.992;6.798;2023-01-30T05:32:45;100943.38;;;3.88;100.00
2178;BME280;1095;50.992;6.798;2023-01-30T05:35:14;100952.09;;;3.87;100.00
2178;BME280;1095;50.992;6.798;2023-01-30T05:37:40;100956.34;;;3.88;100.00
2178;BME280;1095;50.992;6.798;2023-01-30T05:40:10;100958.94;;;3.88;100.00
2178;BME280;1095;50.992;6.798;2023-01-30T05:42:36;100965.88;;;3.87;100.00
2178;BME280;1095;50.992;6.798;2023-01-30T05:45:04;100970.00;;;3.90;100.00
2178;BME280;1095;50.992;6.798;2023-01-30T05:47:30;100963.69;;;3.94;100.00
2178;BME280;1095;50.992;6.798;2023-01-30T05:49:57;100946.50;;;3.93;100.00
2178;BME280;1095;50.992;6.798;2023-01-30T05:52:25;100941.53;;;3.90;100.00
2178;BME280;1095;50.992;6.798;2023-01-30T05:54:52;100938.00;;;3.91;100.00
2178;BME280;1095;50.992;6.798;2023-01-30T05:57:19;100954.56;;;3.88;100.00
2178;BME280;1095;50.992;6.798;2023-01-30T05:59:46;100957.69;;;3.93;100.00
2178;BME280;1095;50.992;6.798;2023-01-30T06:02:12;100955.09;;;3.93;100.00
2178;BME280;1095;50.992;6.798;2023-01-30T06:04:39;100959.53;;;4.04;100.00
2178;BME280;1095;50.992;6.798;2023-01-30T06:07:05;100943.50;;;3.99;100.00
2178;BME280;1095;50.992;6.798;2023-01-30T06:09:33;100957.66;;;4.06;100.00
2178;BME280;1095;50.992;6.798;2023-01-30T06:12:00;100958.59;;;4.05;100.00
2178;BME280;1095;50.992;6.798;2023-01-30T06:14:26;100951.34;;;4.10;100.00
2178;BME280;1095;50.992;6.798;2023-01-30T06:16:53;100945.34;;;4.10;100.00
2178;BME280;1095;50.992;6.798;2023-01-30T06:19:20;100951.97;;;4.14;100.00
2178;BME280;1095;50.992;6.798;2023-01-30T06:21:46;100954.22;;;4.18;100.00
2178;BME280;1095;50.992;6.798;2023-01-30T06:24:13;100950.09;;;4.16;100.00
2178;BME280;1095;50.992;6.798;2023-01-30T06:26:41;100961.34;;;4.27;100.00
2178;BME280;1095;50.992;6.798;2023-01-30T06:29:08;100978.44;;;4.30;100.00
2178;BME280;1095;50.992;6.798;2023-01-30T06:31:34;100983.50;;;4.31;100.00
2178;BME280;1095;50.992;6.798;2023-01-30T06:34:01;100991.06;;;4.34;100.00
2178;BME280;1095;50.992;6.798;2023-01-30T06:36:28;100969.94;;;4.28;100.00
2178;BME280;1095;50.992;6.798;2023-01-30T06:38:55;100984.94;;;4.36;100.00
2178;BME280;1095;50.992;6.798;2023-01-30T06:41:21;100990.22;;;4.47;100.00
2178;BME280;1095;50.992;6.798;2023-01-30T06:43:49;100978.25;;;4.57;100.00
2178;BME280;1095;50.992;6.798;2023-01-30T06:46:16;100984.66;;;4.64;100.00
2178;BME280;1095;50.992;6.798;2023-01-30T06:48:43;100977.63;;;4.66;100.00
2178;BME280;1095;50.992;6.798;2023-01-30T06:51:09;100987.53;;;4.72;100.00
2178;BME280;1095;50.992;6.798;2023-01-30T06:53:36;100979.06;;;4.70;100.00
2178;BME280;1095;50.992;6.798;2023-01-30T06:56:03;100990.50;;;4.79;100.00
2178;BME280;1095;50.992;6.798;2023-01-30T06:58:29;100983.34;;;4.82;100.00
2178;BME280;1095;50.992;6.798;2023-01-30T07:00:57;100992.88;;;4.82;100.00
2178;BME280;1095;50.992;6.798;2023-01-30T07:03:24;100989.00;;;4.87;100.00
2178;BME280;1095;50.992;6.798;2023-01-30T07:05:51;100999.66;;;4.95;100.00
2178;BME280;1095;50.992;6.798;2023-01-30T07:08:17;101000.09;;;4.89;100.00
2178;BME280;1095;50.992;6.798;2023-01-30T07:10:44;101007.44;;;4.95;100.00
2178;BME280;1095;50.992;6.798;2023-01-30T07:13:11;100998.13;;;4.93;100.00
2178;BME280;1095;50.992;6.798;2023-01-30T07:15:38;100998.13;;;4.93;100.00
2178;BME280;1095;50.992;6.798;2023-01-30T07:18:06;100998.84;;;4.95;100.00
2178;BME280;1095;50.992;6.798;2023-01-30T07:20:33;101002.97;;;4.97;100.00
2178;BME280;1095;50.992;6.798;2023-01-30T07:23:00;101009.59;;;5.02;100.00
2178;BME280;1095;50.992;6.798;2023-01-30T07:25:27;101014.34;;;5.08;100.00
2178;BME280;1095;50.992;6.798;2023-01-30T07:27:55;101016.22;;;5.06;100.00
2178;BME280;1095;50.992;6.798;2023-01-30T07:30:22;101002.03;;;4.98;100.00
2178;BME280;1095;50.992;6.798;2023-01-30T07:32:49;101001.09;;;4.99;100.00
2178;BME280;1095;50.992;6.798;2023-01-30T07:35:18;101004.91;;;5.07;100.00
2178;BME280;1095;50.992;6.798;2023-01-30T07:37:45;101022.84;;;5.10;100.00
2178;BME280;1095;50.992;6.798;2023-01-30T07:40:12;101020.38;;;5.08;100.00
2178;BME280;1095;50.992;6.798;2023-01-30T07:42:39;101011.19;;;5.15;100.00
2178;BME280;1095;50.992;6.798;2023-01-30T07:45:07;101008.50;;;5.17;100.00
2178;BME280;1095;50.992;6.798;2023-01-30T07:47:37;101005.19;;;5.15;100.00
2178;BME280;1095;50.992;6.798;2023-01-30T07:50:05;101016.75;;;5.22;100.00
2178;BME280;1095;50.992;6.798;2023-01-30T07:52:34;101015.59;;;5.26;100.00
2178;BME280;1095;50.992;6.798;2023-01-30T07:55:03;101013.38;;;5.32;100.00
2178;BME280;1095;50.992;6.798;2023-01-30T07:57:30;101012.13;;;5.49;100.00
2178;BME280;1095;50.992;6.798;2023-01-30T07:59:56;101030.78;;;5.54;100.00
2178;BME280;1095;50.992;6.798;2023-01-30T08:02:23;101027.50;;;5.63;100.00
2178;BME280;1095;50.992;6.798;2023-01-30T08:04:50;101029.75;;;5.68;100.00
2178;BME280;1095;50.992;6.798;2023-01-30T08:07:18;101030.34;;;5.72;100.00
2178;BME280;1095;50.992;6.798;2023-01-30T08:09:47;101023.25;;;5.74;100.00
2178;BME280;1095;50.992;6.798;2023-01-30T08:12:15;101010.38;;;5.72;100.00
2178;BME280;1095;50.992;6.798;2023-01-30T08:14:42;101015.94;;;5.67;100.00
2178;BME280;1095;50.992;6.798;2023-01-30T08:17:12;101022.22;;;5.65;100.00
2178;BME280;1095;50.992;6.798;2023-01-30T08:19:39;101027.97;;;5.57;100.00
2178;BME280;1095;50.992;6.798;2023-01-30T08:22:08;101021.50;;;5.63;100.00
2178;BME280;1095;50.992;6.798;2023-01-30T08:24:35;101017.97;;;5.64;100.00
2178;BME280;1095;50.992;6.798;2023-01-30T08:27:06;101037.19;;;5.73;100.00
2178;BME280;1095;50.992;6.798;2023-01-30T08:29:33;101028.09;;;5.78;100.00
2178;BME280;1095;50.992;6.798;2023-01-30T08:32:00;101021.16;;;5.79;100.00
2178;BME280;1095;50.992;6.798;2023-01-30T08:34:26;101046.88;;;5.82;100.00
2178;BME280;1095;50.992;6.798;2023-01-30T08:36:53;101039.06;;;5.71;100.00
2178;BME280;1095;50.992;6.798;2023-01-30T08:39:20;101049.00;;;5.65;100.00
2178;BME280;1095;50.992;6.798;2023-01-30T08:41:46;101050.38;;;5.58;100.00
2178;BME280;1095;50.992;6.798;2023-01-30T08:44:14;101053.59;;;5.62;100.00
2178;BME280;1095;50.992;6.798;2023-01-30T08:46:41;101064.81;;;5.74;100.00
2178;BME280;1095;50.992;6.798;2023-01-30T08:49:09;101056.78;;;5.77;100.00
2178;BME280;1095;50.992;6.798;2023-01-30T08:51:36;101052.53;;;5.76;100.00
2178;BME280;1095;50.992;6.798;2023-01-30T08:54:03;101043.81;;;5.77;100.00
2178;BME280;1095;50.992;6.798;2023-01-30T08:56:31;101056.56;;;5.80;100.00
2178;BME280;1095;50.992;6.798;2023-01-30T08:58:58;101046.22;;;5.91;100.00
2178;BME280;1095;50.992;6.798;2023-01-30T09:01:26;101057.00;;;5.97;100.00
2178;BME280;1095;50.992;6.798;2023-01-30T09:03:53;101062.00;;;5.88;100.00
2178;BME280;1095;50.992;6.798;2023-01-30T09:06:19;101060.59;;;5.84;100.00
2178;BME280;1095;50.992;6.798;2023-01-30T09:08:46;101048.78;;;5.80;100.00
2178;BME280;1095;50.992;6.798;2023-01-30T09:11:12;101067.84;;;5.91;100.00
2178;BME280;1095;50.992;6.798;2023-01-30T09:13:50;101059.13;;;6.04;100.00
2178;BME280;1095;50.992;6.798;2023-01-30T09:16:20;101038.69;;;5.99;100.00
2178;BME280;1095;50.992;6.798;2023-01-30T09:18:48;101047.91;;;6.03;100.00
2178;BME280;1095;50.992;6.798;2023-01-30T09:21:15;101053.69;;;6.07;100.00
2178;BME280;1095;50.992;6.798;2023-01-30T09:23:46;101052.50;;;5.99;100.00
2178;BME280;1095;50.992;6.798;2023-01-30T09:26:16;101061.59;;;5.94;100.00
2178;BME280;1095;50.992;6.798;2023-01-30T09:28:42;101064.44;;;6.02;100.00
2178;BME280;1095;50.992;6.798;2023-01-30T09:31:13;101066.56;;;5.97;100.00
2178;BME280;1095;50.992;6.798;2023-01-30T09:33:40;101071.03;;;5.95;100.00
2178;BME280;1095;50.992;6.798;2023-01-30T09:36:10;101052.16;;;6.04;100.00
2178;BME280;1095;50.992;6.798;2023-01-30T09:38:41;101067.28;;;6.10;100.00
2178;BME280;1095;50.992;6.798;2023-01-30T09:41:29;101062.81;;;6.12;100.00
2178;BME280;1095;50.992;6.798;2023-01-30T09:44:15;101068.13;;;6.11;99.59
2178;BME280;1095;50.992;6.798;2023-01-30T09:46:58;101068.47;;;6.06;98.98
2178;BME280;1095;50.992;6.798;2023-01-30T09:49:45;101069.66;;;6.13;98.78
2178;BME280;1095;50.992;6.798;2023-01-30T09:52:26;101078.50;;;6.11;98.80
2178;BME280;1095;50.992;6.798;2023-01-30T09:54:59;101076.97;;;6.19;98.26
2178;BME280;1095;50.992;6.798;2023-01-30T09:57:28;101073.28;;;6.22;97.76
2178;BME280;1095;50.992;6.798;2023-01-30T10:00:10;101066.56;;;6.19;97.94
2178;BME280;1095;50.992;6.798;2023-01-30T10:02:52;101065.72;;;6.19;97.13
2178;BME280;1095;50.992;6.798;2023-01-30T10:05:27;101062.78;;;6.23;96.71
2178;BME280;1095;50.992;6.798;2023-01-30T10:08:15;101060.91;;;6.25;96.74
2178;BME280;1095;50.992;6.798;2023-01-30T10:10:57;101071.28;;;6.25;95.98
2178;BME280;1095;50.992;6.798;2023-01-30T10:13:46;101074.63;;;6.39;95.35
2178;BME280;1095;50.992;6.798;2023-01-30T10:16:22;101075.56;;;6.60;94.17
2178;BME280;1095;50.992;6.798;2023-01-30T10:18:59;101084.63;;;6.65;93.43
2178;BME280;1095;50.992;6.798;2023-01-30T10:21:46;101091.59;;;6.65;93.15
2178;BME280;1095;50.992;6.798;2023-01-30T10:24:43;101078.47;;;6.66;92.62
2178;BME280;1095;50.992;6.798;2023-01-30T10:27:18;101090.66;;;6.66;91.97
2178;BME280;1095;50.992;6.798;2023-01-30T10:29:59;101106.03;;;6.69;92.02
2178;BME280;1095;50.992;6.798;2023-01-30T10:32:38;101095.16;;;6.75;92.29
2178;BME280;1095;50.992;6.798;2023-01-30T10:35:15;101104.84;;;6.84;92.19
2178;BME280;1095;50.992;6.798;2023-01-30T10:37:45;101095.63;;;6.80;91.48
2178;BME280;1095;50.992;6.798;2023-01-30T10:40:24;101083.31;;;6.82;90.72
2178;BME280;1095;50.992;6.798;2023-01-30T10:43:05;101095.13;;;6.86;91.30
2178;BME280;1095;50.992;6.798;2023-01-30T10:45:40;101080.25;;;6.88;91.28
2178;BME280;1095;50.992;6.798;2023-01-30T10:48:48;101093.59;;;6.84;90.95
2178;BME280;1095;50.992;6.798;2023-01-30T10:51:46;101088.41;;;6.73;89.98
2178;BME280;1095;50.992;6.798;2023-01-30T10:54:23;101086.16;;;6.79;89.84
2178;BME280;1095;50.992;6.798;2023-01-30T10:56:58;101092.78;;;6.83;88.96
2178;BME280;1095;50.992;6.798;2023-01-30T10:59:49;101113.00;;;6.91;88.16
2178;BME280;1095;50.992;6.798;2023-01-30T11:02:36;101104.13;;;6.93;88.13
2178;BME280;1095;50.992;6.798;2023-01-30T11:05:21;101113.56;;;6.94;88.11
2178;BME280;1095;50.992;6.798;2023-01-30T11:08:21;101115.25;;;6.84;88.12
2178;BME280;1095;50.992;6.798;2023-01-30T11:11:50;101112.41;;;6.76;87.84
2178;BME280;1095;50.992;6.798;2023-01-30T11:14:20;101095.16;;;6.75;87.18
2178;BME280;1095;50.992;6.798;2023-01-30T11:17:36;101092.66;;;6.74;87.34
2178;BME280;1095;50.992;6.798;2023-01-30T11:20:16;101109.09;;;6.74;88.04
2178;BME280;1095;50.992;6.798;2023-01-30T11:23:21;101085.97;;;6.60;87.31
2178;BME280;1095;50.992;6.798;2023-01-30T11:25:55;101090.22;;;6.61;87.63
2178;BME280;1095;50.992;6.798;2023-01-30T11:28:26;101090.44;;;6.58;87.63
2178;BME280;1095;50.992;6.798;2023-01-30T11:31:03;101100.34;;;6.64;87.78
2178;BME280;1095;50.992;6.798;2023-01-30T11:33:39;101102.59;;;6.69;86.76
2178;BME280;1095;50.992;6.798;2023-01-30T11:36:23;101105.56;;;6.75;86.55
2178;BME280;1095;50.992;6.798;2023-01-30T11:39:22;101099.06;;;6.70;86.50
2178;BME280;1095;50.992;6.798;2023-01-30T11:41:57;101102.00;;;6.76;86.72
2178;BME280;1095;50.992;6.798;2023-01-30T11:44:31;101093.50;;;6.74;86.43
2178;BME280;1095;50.992;6.798;2023-01-30T11:47:00;101102.34;;;6.83;86.29
2178;BME280;1095;50.992;6.798;2023-01-30T11:49:32;101101.28;;;6.85;86.25
2178;BME280;1095;50.992;6.798;2023-01-30T11:52:00;101093.47;;;6.85;86.48
2178;BME280;1095;50.992;6.798;2023-01-30T11:54:31;101084.25;;;6.81;86.41
2178;BME280;1095;50.992;6.798;2023-01-30T11:57:01;101079.06;;;6.81;86.49
2178;BME280;1095;50.992;6.798;2023-01-30T11:59:35;101089.22;;;6.84;86.99
2178;BME280;1095;50.992;6.798;2023-01-30T12:02:11;101086.88;;;6.81;85.88
2178;BME280;1095;50.992;6.798;2023-01-30T12:04:43;101093.72;;;6.82;86.66
2178;BME280;1095;50.992;6.798;2023-01-30T12:07:17;101098.56;;;6.87;86.71
2178;BME280;1095;50.992;6.798;2023-01-30T12:09:49;101094.44;;;6.84;86.48
2178;BME280;1095;50.992;6.798;2023-01-30T12:12:28;101078.59;;;6.87;85.35
2178;BME280;1095;50.992;6.798;2023-01-30T12:15:02;101102.47;;;6.92;85.35
2178;BME280;1095;50.992;6.798;2023-01-30T12:17:38;101093.25;;;6.88;85.84
2178;BME280;1095;50.992;6.798;2023-01-30T12:20:14;101099.75;;;6.83;84.74
2178;BME280;1095;50.992;6.798;2023-01-30T12:22:46;101110.75;;;6.75;84.81
2178;BME280;1095;50.992;6.798;2023-01-30T12:25:19;101103.91;;;6.74;84.67
2178;BME280;1095;50.992;6.798;2023-01-30T12:27:54;101101.28;;;6.74;84.82
2178;BME280;1095;50.992;6.798;2023-01-30T12:30:27;101109.09;;;6.74;85.13
2178;BME280;1095;50.992;6.798;2023-01-30T12:32:58;101100.00;;;6.80;84.91
2178;BME280;1095;50.992;6.798;2023-01-30T12:35:33;101093.25;;;6.77;84.72
2178;BME280;1095;50.992;6.798;2023-01-30T12:38:08;101108.84;;;6.77;84.63
2178;BME280;1095;50.992;6.798;2023-01-30T12:40:45;101108.38;;;6.83;84.38
2178;BME280;1095;50.992;6.798;2023-01-30T12:43:25;101110.88;;;6.85;84.67
2178;BME280;1095;50.992;6.798;2023-01-30T12:46:04;101110.41;;;6.80;84.60
2178;BME280;1095;50.992;6.798;2023-01-30T12:49:01;101115.47;;;6.81;85.06
2178;BME280;1095;50.992;6.798;2023-01-30T12:51:42;101112.63;;;6.95;84.96
2178;BME280;1095;50.992;6.798;2023-01-30T12:54:24;101120.56;;;6.94;84.62
2178;BME280;1095;50.992;6.798;2023-01-30T12:57:16;101105.16;;;7.02;83.79
2178;BME280;1095;50.992;6.798;2023-01-30T13:00:13;101111.84;;;7.27;83.94
2178;BME280;1095;50.992;6.798;2023-01-30T13:03:18;101101.00;;;7.11;83.52
2178;BME280;1095;50.992;6.798;2023-01-30T13:05:51;101086.38;;;6.98;83.55
2178;BME280;1095;50.992;6.798;2023-01-30T13:11:49;101093.88;;;7.13;82.96
2178;BME280;1095;50.992;6.798;2023-01-30T13:14:30;101107.13;;;7.21;83.06
2178;BME280;1095;50.992;6.798;2023-01-30T13:17:13;101115.03;;;7.19;83.48
2178;BME280;1095;50.992;6.798;2023-01-30T13:19:45;101112.41;;;7.30;82.88
2178;BME280;1095;50.992;6.798;2023-01-30T13:22:26;101099.66;;;7.27;81.86
2178;BME280;1095;50.992;6.798;2023-01-30T13:25:03;101097.91;;;7.17;81.42
2178;BME280;1095;50.992;6.798;2023-01-30T13:27:37;101104.03;;;7.27;81.18
2178;BME280;1095;50.992;6.798;2023-01-30T13:30:14;101123.91;;;7.28;81.36
2178;BME280;1095;50.992;6.798;2023-01-30T13:32:47;101133.72;;;7.24;80.86
2178;BME280;1095;50.992;6.798;2023-01-30T13:35:16;101127.00;;;7.22;80.43
2178;BME280;1095;50.992;6.798;2023-01-30T13:37:46;101130.78;;;7.18;80.02
2178;BME280;1095;50.992;6.798;2023-01-30T13:40:17;101148.75;;;7.21;80.29
2178;BME280;1095;50.992;6.798;2023-01-30T13:53:07;101171.06;;;7.03;81.16
2178;BME280;1095;50.992;6.798;2023-01-30T13:55:40;101170.56;;;6.97;81.67
2178;BME280;1095;50.992;6.798;2023-01-30T13:58:20;101180.75;;;7.01;81.33
2178;BME280;1095;50.992;6.798;2023-01-30T14:00:52;101169.63;;;6.98;80.84